Disclaimer

Please do not use the information listed here in-flight or in-navigation, as they are not provided to us by the airports but are provided by volunteers, so they might be outdated.

Search


Regions


Airport information page

Radio informations:
Tower (TWR) - 118.1 MHz
Ground (GND) - 121.9 MHz
RDO - 124.0 MHz
CLNC - 125.1 MHz
Approach (APP) - 124.7 MHz
CON - 127.5 MHz

Airport informations:
Latitude: 10° 18' 27.15" N
Longitude: 123° 58' 45.98" E
Elevation: 31 feet - 9 meters
Operating hours: N/A
Operating agency: Military-civil joint use airport
Timezone: UTC+8
Fuel: Jet B, Wide cut turbine fuel, Without icing inhibitor.

Jet A1, without icing nhibitor.

100/130 octane gasoline, leaded, MIL-L-5572F (GREEN)

Runway information:
04/22 - 10827 x 148 feet< - >3300 x 45 meters

Recent METARs:
RPVM 151100Z 01009KT 7000 -SHRA SCT018CB OVC090 25/24 Q1013 RMK A2991 CB S, SW W
RPVM 151100Z 01009KT 7000 -SHRA SCT018CB OVC090 25/24 Q1013 RMK A2991 CB S, SW W
RPVM 151100Z 01009KT 7000 -SHRA SCT018CB OVC090 25/24 Q1013 RMK A2991 CB S, SW W

Airport on the map: